CheckWX is a tool to help pilots better visualize weather data.  It is not intended as a substitute for an official pre-flight weather briefing.

08:03:21 UTC

RCSS TAF
Taipei Songshan Airport
Taipei City, Taiwan
TAF RCSS 081100Z 0812/0912 33005KT 9999 FEW012 BKN032 BKN060 TEMPO 0821/0901 VRB03KT 5000 SHRA FEW010 FEW015CB BKN020 BKN050 BECMG 0901/0903 28010KT TEMPO 0905/0911 10008KT 4000 SHRA SCT010 FEW015CB BKN016 BKN040

Jul-8@
12:00 UTC

Jul-8 @ 12:00 UTC

Jul-9@
01:00 UTC

Jul-9 @ 01:00 UTC

TAF RCSS 081100Z 0812/0912 33005KT 9999 FEW012 BKN032 BKN060

Expired

Wind
  • 330° at 5 KTS
Cloud Levels
  • Few at 1,200' AGL
  • Broken at 3,200' AGL
  • Broken at 6,000' AGL

Jul-8@
21:00 UTC

Jul-8 @ 21:00 UTC

Jul-9@
01:00 UTC

Jul-9 @ 01:00 UTC

TEMPO 0821/0901 VRB03KT 5000 SHRA FEW010 FEW015CB BKN020 BKN050

Expired

Wind
  • Variable at 3 KTS
Conditions
Showers, Rain
Cloud Levels
  • Few at 1,000' AGL
  • Few at 1,500' AGL
  • Broken at 2,000' AGL

Jul-9@
01:00 UTC

Jul-9 @ 01:00 UTC

Jul-9@
12:00 UTC

Jul-9 @ 12:00 UTC

BECMG 0901/0903 28010KT

Becoming

Becoming Conditions expected by Thu, Jul 9, 2020 @ 03:00 UTC

Wind
  • 280° at 10 KTS
Cloud Levels
  • Few at 1,200' AGL
  • Broken at 3,200' AGL
  • Broken at 6,000' AGL

Jul-9@
05:00 UTC

Jul-9 @ 05:00 UTC

Jul-9@
11:00 UTC

Jul-9 @ 11:00 UTC

TEMPO 0905/0911 10008KT 4000 SHRA SCT010 FEW015CB BKN016 BKN040

Temporary

Temporary Changes expected for less than half the time period

Wind
  • 100° at 8 KTS
Conditions
Showers, Rain
Cloud Levels
  • Scattered at 1,000' AGL
  • Few at 1,500' AGL
  • Broken at 1,600' AGL